sensor_id;sensor_type;location;lat;lon;timestamp;P1;durP1;ratioP1;P2;durP2;ratioP2
52136;SDS011;38130;49.012;8.368;2022-07-24T00:00:44;10.48;;;9.30;;
52136;SDS011;38130;49.012;8.368;2022-07-24T00:03:11;11.23;;;9.05;;
52136;SDS011;38130;49.012;8.368;2022-07-24T00:05:38;10.38;;;9.32;;
52136;SDS011;38130;49.012;8.368;2022-07-24T00:08:04;10.25;;;9.15;;
52136;SDS011;38130;49.012;8.368;2022-07-24T00:10:31;10.55;;;9.35;;
52136;SDS011;38130;49.012;8.368;2022-07-24T00:12:57;10.10;;;9.10;;
52136;SDS011;38130;49.012;8.368;2022-07-24T00:15:24;12.00;;;9.15;;
52136;SDS011;38130;49.012;8.368;2022-07-24T00:17:50;10.23;;;9.25;;
52136;SDS011;38130;49.012;8.368;2022-07-24T00:20:17;10.05;;;8.57;;
52136;SDS011;38130;49.012;8.368;2022-07-24T00:22:43;11.60;;;9.32;;
52136;SDS011;38130;49.012;8.368;2022-07-24T00:25:10;11.52;;;8.98;;
52136;SDS011;38130;49.012;8.368;2022-07-24T00:27:36;10.18;;;8.95;;
52136;SDS011;38130;49.012;8.368;2022-07-24T00:30:03;10.18;;;8.95;;
52136;SDS011;38130;49.012;8.368;2022-07-24T00:32:30;12.30;;;9.23;;
52136;SDS011;38130;49.012;8.368;2022-07-24T00:34:57;11.32;;;8.85;;
52136;SDS011;38130;49.012;8.368;2022-07-24T00:37:23;12.00;;;10.20;;
52136;SDS011;38130;49.012;8.368;2022-07-24T00:39:49;9.93;;;8.95;;
52136;SDS011;38130;49.012;8.368;2022-07-24T00:42:16;9.88;;;8.88;;
52136;SDS011;38130;49.012;8.368;2022-07-24T00:44:42;10.07;;;9.07;;
52136;SDS011;38130;49.012;8.368;2022-07-24T00:47:09;12.02;;;9.27;;
52136;SDS011;38130;49.012;8.368;2022-07-24T00:49:36;9.45;;;8.52;;
52136;SDS011;38130;49.012;8.368;2022-07-24T00:52:02;10.40;;;8.60;;
52136;SDS011;38130;49.012;8.368;2022-07-24T00:54:29;10.05;;;9.00;;
52136;SDS011;38130;49.012;8.368;2022-07-24T00:56:56;14.55;;;8.90;;
52136;SDS011;38130;49.012;8.368;2022-07-24T00:59:23;13.68;;;8.40;;
52136;SDS011;38130;49.012;8.368;2022-07-24T01:01:49;11.80;;;9.02;;
52136;SDS011;38130;49.012;8.368;2022-07-24T01:04:17;12.05;;;9.23;;
52136;SDS011;38130;49.012;8.368;2022-07-24T01:06:44;9.20;;;8.20;;
52136;SDS011;38130;49.012;8.368;2022-07-24T01:09:12;12.38;;;10.07;;
52136;SDS011;38130;49.012;8.368;2022-07-24T01:11:39;9.93;;;8.98;;
52136;SDS011;38130;49.012;8.368;2022-07-24T01:14:06;11.80;;;10.05;;
52136;SDS011;38130;49.012;8.368;2022-07-24T01:16:34;10.75;;;9.65;;
52136;SDS011;38130;49.012;8.368;2022-07-24T01:19:02;13.77;;;10.93;;
52136;SDS011;38130;49.012;8.368;2022-07-24T01:21:29;11.63;;;10.43;;
52136;SDS011;38130;49.012;8.368;2022-07-24T01:23:56;10.90;;;9.77;;
52136;SDS011;38130;49.012;8.368;2022-07-24T01:26:22;12.27;;;11.07;;
52136;SDS011;38130;49.012;8.368;2022-07-24T01:28:49;14.38;;;11.73;;
52136;SDS011;38130;49.012;8.368;2022-07-24T01:31:15;13.25;;;11.35;;
52136;SDS011;38130;49.012;8.368;2022-07-24T01:33:42;11.95;;;10.68;;
52136;SDS011;38130;49.012;8.368;2022-07-24T01:36:08;13.25;;;10.15;;
52136;SDS011;38130;49.012;8.368;2022-07-24T01:38:35;10.88;;;9.32;;
52136;SDS011;38130;49.012;8.368;2022-07-24T01:41:01;13.02;;;10.93;;
52136;SDS011;38130;49.012;8.368;2022-07-24T01:43:28;22.00;;;18.00;;
52136;SDS011;38130;49.012;8.368;2022-07-24T01:45:55;14.60;;;11.70;;
52136;SDS011;38130;49.012;8.368;2022-07-24T01:48:21;25.27;;;21.70;;
52136;SDS011;38130;49.012;8.368;2022-07-24T01:50:48;13.23;;;11.93;;
52136;SDS011;38130;49.012;8.368;2022-07-24T01:53:15;11.02;;;9.93;;
52136;SDS011;38130;49.012;8.368;2022-07-24T01:55:41;17.00;;;13.95;;
52136;SDS011;38130;49.012;8.368;2022-07-24T01:58:08;11.88;;;9.88;;
52136;SDS011;38130;49.012;8.368;2022-07-24T02:00:34;12.77;;;10.00;;
52136;SDS011;38130;49.012;8.368;2022-07-24T02:03:02;24.33;;;19.33;;
52136;SDS011;38130;49.012;8.368;2022-07-24T02:05:28;14.10;;;12.60;;
52136;SDS011;38130;49.012;8.368;2022-07-24T02:07:56;12.32;;;11.13;;
52136;SDS011;38130;49.012;8.368;2022-07-24T02:10:25;13.00;;;11.43;;
52136;SDS011;38130;49.012;8.368;2022-07-24T02:12:53;16.45;;;14.75;;
52136;SDS011;38130;49.012;8.368;2022-07-24T02:15:20;10.95;;;9.75;;
52136;SDS011;38130;49.012;8.368;2022-07-24T02:17:47;17.50;;;13.27;;
52136;SDS011;38130;49.012;8.368;2022-07-24T02:20:15;14.05;;;10.10;;
52136;SDS011;38130;49.012;8.368;2022-07-24T02:22:41;12.82;;;9.48;;
52136;SDS011;38130;49.012;8.368;2022-07-24T02:25:08;16.13;;;11.63;;
52136;SDS011;38130;49.012;8.368;2022-07-24T02:27:36;12.00;;;9.70;;
52136;SDS011;38130;49.012;8.368;2022-07-24T02:30:04;11.75;;;9.05;;
52136;SDS011;38130;49.012;8.368;2022-07-24T02:32:33;10.40;;;8.20;;
52136;SDS011;38130;49.012;8.368;2022-07-24T02:34:59;11.45;;;8.32;;
52136;SDS011;38130;49.012;8.368;2022-07-24T02:37:31;11.07;;;8.20;;
52136;SDS011;38130;49.012;8.368;2022-07-24T02:39:58;10.27;;;9.18;;
52136;SDS011;38130;49.012;8.368;2022-07-24T02:42:25;10.77;;;8.52;;
52136;SDS011;38130;49.012;8.368;2022-07-24T02:44:51;9.15;;;8.15;;
52136;SDS011;38130;49.012;8.368;2022-07-24T02:47:17;9.93;;;8.80;;
52136;SDS011;38130;49.012;8.368;2022-07-24T02:49:44;11.93;;;8.45;;
52136;SDS011;38130;49.012;8.368;2022-07-24T02:52:10;9.52;;;8.18;;
52136;SDS011;38130;49.012;8.368;2022-07-24T02:54:37;10.55;;;8.77;;
52136;SDS011;38130;49.012;8.368;2022-07-24T02:57:03;10.60;;;8.23;;
52136;SDS011;38130;49.012;8.368;2022-07-24T02:59:30;9.68;;;8.35;;
52136;SDS011;38130;49.012;8.368;2022-07-24T03:01:56;9.32;;;8.40;;
52136;SDS011;38130;49.012;8.368;2022-07-24T03:04:23;10.95;;;8.98;;
52136;SDS011;38130;49.012;8.368;2022-07-24T03:06:49;10.82;;;9.43;;
52136;SDS011;38130;49.012;8.368;2022-07-24T03:09:16;11.23;;;9.85;;
52136;SDS011;38130;49.012;8.368;2022-07-24T03:11:42;12.50;;;11.18;;
52136;SDS011;38130;49.012;8.368;2022-07-24T03:14:09;11.82;;;10.73;;
52136;SDS011;38130;49.012;8.368;2022-07-24T03:16:35;10.93;;;9.88;;
52136;SDS011;38130;49.012;8.368;2022-07-24T03:19:04;10.13;;;9.18;;
52136;SDS011;38130;49.012;8.368;2022-07-24T03:21:31;11.10;;;9.95;;
52136;SDS011;38130;49.012;8.368;2022-07-24T03:24:13;10.75;;;9.65;;
52136;SDS011;38130;49.012;8.368;2022-07-24T03:26:40;11.48;;;10.38;;
52136;SDS011;38130;49.012;8.368;2022-07-24T03:29:07;11.10;;;9.98;;
52136;SDS011;38130;49.012;8.368;2022-07-24T03:31:34;10.90;;;9.80;;
52136;SDS011;38130;49.012;8.368;2022-07-24T03:34:00;11.95;;;9.73;;
52136;SDS011;38130;49.012;8.368;2022-07-24T03:36:27;12.23;;;10.43;;
52136;SDS011;38130;49.012;8.368;2022-07-24T03:38:54;11.07;;;9.98;;
52136;SDS011;38130;49.012;8.368;2022-07-24T03:41:20;14.10;;;10.07;;
52136;SDS011;38130;49.012;8.368;2022-07-24T03:43:48;11.52;;;9.93;;
52136;SDS011;38130;49.012;8.368;2022-07-24T03:46:15;13.95;;;10.02;;
52136;SDS011;38130;49.012;8.368;2022-07-24T03:48:42;13.48;;;9.48;;
52136;SDS011;38130;49.012;8.368;2022-07-24T03:51:08;10.05;;;8.80;;
52136;SDS011;38130;49.012;8.368;2022-07-24T03:53:35;13.18;;;9.73;;
52136;SDS011;38130;49.012;8.368;2022-07-24T03:56:08;11.32;;;10.10;;
52136;SDS011;38130;49.012;8.368;2022-07-24T03:58:36;10.27;;;9.27;;
52136;SDS011;38130;49.012;8.368;2022-07-24T04:01:05;10.98;;;9.95;;
52136;SDS011;38130;49.012;8.368;2022-07-24T04:03:32;9.82;;;8.85;;
52136;SDS011;38130;49.012;8.368;2022-07-24T04:06:03;10.48;;;8.68;;
52136;SDS011;38130;49.012;8.368;2022-07-24T04:08:31;13.85;;;9.73;;
52136;SDS011;38130;49.012;8.368;2022-07-24T04:10:58;10.95;;;9.85;;
52136;SDS011;38130;49.012;8.368;2022-07-24T04:13:25;11.10;;;9.15;;
52136;SDS011;38130;49.012;8.368;2022-07-24T04:15:53;14.20;;;10.80;;
52136;SDS011;38130;49.012;8.368;2022-07-24T04:18:20;11.10;;;10.00;;
52136;SDS011;38130;49.012;8.368;2022-07-24T04:20:47;11.57;;;10.02;;
52136;SDS011;38130;49.012;8.368;2022-07-24T04:23:15;14.73;;;10.13;;
52136;SDS011;38130;49.012;8.368;2022-07-24T04:25:44;12.68;;;11.38;;
52136;SDS011;38130;49.012;8.368;2022-07-24T04:28:11;12.75;;;11.45;;
52136;SDS011;38130;49.012;8.368;2022-07-24T04:30:37;12.88;;;11.45;;
52136;SDS011;38130;49.012;8.368;2022-07-24T04:33:04;12.40;;;11.10;;
52136;SDS011;38130;49.012;8.368;2022-07-24T04:35:30;13.43;;;10.60;;
52136;SDS011;38130;49.012;8.368;2022-07-24T04:37:57;13.25;;;10.48;;
52136;SDS011;38130;49.012;8.368;2022-07-24T04:40:24;13.52;;;9.75;;
52136;SDS011;38130;49.012;8.368;2022-07-24T04:42:50;11.88;;;10.63;;
52136;SDS011;38130;49.012;8.368;2022-07-24T04:45:16;15.57;;;11.00;;
52136;SDS011;38130;49.012;8.368;2022-07-24T04:47:43;14.68;;;10.18;;
52136;SDS011;38130;49.012;8.368;2022-07-24T04:50:09;11.63;;;10.38;;
52136;SDS011;38130;49.012;8.368;2022-07-24T04:52:39;13.60;;;10.45;;
52136;SDS011;38130;49.012;8.368;2022-07-24T04:55:06;11.95;;;10.48;;
52136;SDS011;38130;49.012;8.368;2022-07-24T04:57:34;10.60;;;9.32;;
52136;SDS011;38130;49.012;8.368;2022-07-24T05:00:00;10.52;;;9.52;;
52136;SDS011;38130;49.012;8.368;2022-07-24T05:02:27;10.82;;;9.73;;
52136;SDS011;38130;49.012;8.368;2022-07-24T05:04:54;14.07;;;9.65;;
52136;SDS011;38130;49.012;8.368;2022-07-24T05:07:21;10.30;;;9.23;;
52136;SDS011;38130;49.012;8.368;2022-07-24T05:09:47;11.35;;;9.73;;
52136;SDS011;38130;49.012;8.368;2022-07-24T05:12:13;10.05;;;9.10;;
52136;SDS011;38130;49.012;8.368;2022-07-24T05:14:40;12.90;;;8.07;;
52136;SDS011;38130;49.012;8.368;2022-07-24T05:17:06;9.90;;;8.80;;
52136;SDS011;38130;49.012;8.368;2022-07-24T05:19:33;10.77;;;9.50;;
52136;SDS011;38130;49.012;8.368;2022-07-24T05:21:59;11.38;;;9.27;;
52136;SDS011;38130;49.012;8.368;2022-07-24T05:24:26;10.98;;;8.70;;
52136;SDS011;38130;49.012;8.368;2022-07-24T05:26:52;10.20;;;8.90;;
52136;SDS011;38130;49.012;8.368;2022-07-24T05:29:19;9.88;;;8.68;;
52136;SDS011;38130;49.012;8.368;2022-07-24T05:31:45;9.95;;;8.43;;
52136;SDS011;38130;49.012;8.368;2022-07-24T05:34:12;11.02;;;8.85;;
52136;SDS011;38130;49.012;8.368;2022-07-24T05:36:39;23.13;;;8.90;;
52136;SDS011;38130;49.012;8.368;2022-07-24T05:39:05;10.88;;;9.27;;
52136;SDS011;38130;49.012;8.368;2022-07-24T05:41:33;10.13;;;9.07;;
52136;SDS011;38130;49.012;8.368;2022-07-24T05:43:59;9.93;;;9.02;;
52136;SDS011;38130;49.012;8.368;2022-07-24T05:46:26;12.52;;;8.85;;
52136;SDS011;38130;49.012;8.368;2022-07-24T05:48:53;12.30;;;9.00;;
52136;SDS011;38130;49.012;8.368;2022-07-24T05:51:19;11.18;;;8.85;;
52136;SDS011;38130;49.012;8.368;2022-07-24T05:53:46;10.95;;;9.40;;
52136;SDS011;38130;49.012;8.368;2022-07-24T05:56:12;12.38;;;9.02;;
52136;SDS011;38130;49.012;8.368;2022-07-24T05:58:38;10.07;;;8.98;;
52136;SDS011;38130;49.012;8.368;2022-07-24T06:01:05;9.82;;;8.93;;
52136;SDS011;38130;49.012;8.368;2022-07-24T06:03:31;10.80;;;9.18;;
52136;SDS011;38130;49.012;8.368;2022-07-24T06:05:58;9.65;;;8.15;;
52136;SDS011;38130;49.012;8.368;2022-07-24T06:08:24;11.77;;;9.13;;
52136;SDS011;38130;49.012;8.368;2022-07-24T06:10:51;9.40;;;8.50;;
52136;SDS011;38130;49.012;8.368;2022-07-24T06:13:17;9.68;;;8.70;;
52136;SDS011;38130;49.012;8.368;2022-07-24T06:15:44;10.65;;;8.82;;
52136;SDS011;38130;49.012;8.368;2022-07-24T06:18:10;11.60;;;8.88;;
52136;SDS011;38130;49.012;8.368;2022-07-24T06:20:37;11.18;;;8.52;;
52136;SDS011;38130;49.012;8.368;2022-07-24T06:23:03;11.48;;;8.25;;
52136;SDS011;38130;49.012;8.368;2022-07-24T06:25:30;10.65;;;8.35;;
52136;SDS011;38130;49.012;8.368;2022-07-24T06:27:57;13.32;;;9.43;;
52136;SDS011;38130;49.012;8.368;2022-07-24T06:30:24;9.13;;;8.05;;
52136;SDS011;38130;49.012;8.368;2022-07-24T06:32:53;8.93;;;7.88;;
52136;SDS011;38130;49.012;8.368;2022-07-24T06:35:24;11.02;;;8.68;;
52136;SDS011;38130;49.012;8.368;2022-07-24T06:37:53;10.77;;;8.30;;
52136;SDS011;38130;49.012;8.368;2022-07-24T06:40:22;9.50;;;8.40;;
52136;SDS011;38130;49.012;8.368;2022-07-24T06:42:48;13.20;;;8.73;;
52136;SDS011;38130;49.012;8.368;2022-07-24T06:45:15;9.38;;;8.43;;
52136;SDS011;38130;49.012;8.368;2022-07-24T06:47:41;8.88;;;7.88;;
52136;SDS011;38130;49.012;8.368;2022-07-24T06:50:08;9.98;;;9.00;;
52136;SDS011;38130;49.012;8.368;2022-07-24T06:52:36;11.05;;;8.68;;
52136;SDS011;38130;49.012;8.368;2022-07-24T06:55:03;10.07;;;8.60;;
52136;SDS011;38130;49.012;8.368;2022-07-24T06:57:30;10.25;;;8.80;;
52136;SDS011;38130;49.012;8.368;2022-07-24T06:59:57;10.20;;;9.10;;
52136;SDS011;38130;49.012;8.368;2022-07-24T07:02:23;14.15;;;9.07;;
52136;SDS011;38130;49.012;8.368;2022-07-24T07:04:50;10.20;;;8.00;;
52136;SDS011;38130;49.012;8.368;2022-07-24T07:07:16;10.13;;;9.00;;
52136;SDS011;38130;49.012;8.368;2022-07-24T07:09:43;10.43;;;9.07;;
52136;SDS011;38130;49.012;8.368;2022-07-24T07:12:10;13.60;;;9.52;;
52136;SDS011;38130;49.012;8.368;2022-07-24T07:14:37;11.35;;;8.02;;
52136;SDS011;38130;49.012;8.368;2022-07-24T07:17:03;9.05;;;8.15;;
52136;SDS011;38130;49.012;8.368;2022-07-24T07:19:30;8.93;;;8.05;;
52136;SDS011;38130;49.012;8.368;2022-07-24T07:21:56;11.20;;;8.75;;
52136;SDS011;38130;49.012;8.368;2022-07-24T07:24:24;11.18;;;8.32;;
52136;SDS011;38130;49.012;8.368;2022-07-24T07:26:50;9.50;;;7.93;;
52136;SDS011;38130;49.012;8.368;2022-07-24T07:29:17;11.00;;;7.40;;
52136;SDS011;38130;49.012;8.368;2022-07-24T07:31:44;8.25;;;7.07;;
52136;SDS011;38130;49.012;8.368;2022-07-24T07:34:10;8.80;;;7.20;;
52136;SDS011;38130;49.012;8.368;2022-07-24T07:36:37;8.43;;;7.53;;
52136;SDS011;38130;49.012;8.368;2022-07-24T07:39:03;8.35;;;7.55;;
52136;SDS011;38130;49.012;8.368;2022-07-24T07:41:30;9.07;;;7.70;;
52136;SDS011;38130;49.012;8.368;2022-07-24T07:43:57;9.45;;;6.90;;
52136;SDS011;38130;49.012;8.368;2022-07-24T07:46:24;9.43;;;6.57;;
52136;SDS011;38130;49.012;8.368;2022-07-24T07:48:52;8.93;;;7.55;;
52136;SDS011;38130;49.012;8.368;2022-07-24T07:51:18;7.93;;;7.07;;
52136;SDS011;38130;49.012;8.368;2022-07-24T07:53:49;8.30;;;7.38;;
52136;SDS011;38130;49.012;8.368;2022-07-24T07:56:16;7.63;;;6.93;;
52136;SDS011;38130;49.012;8.368;2022-07-24T07:58:42;8.60;;;7.43;;
52136;SDS011;38130;49.012;8.368;2022-07-24T08:01:09;7.30;;;6.60;;
52136;SDS011;38130;49.012;8.368;2022-07-24T08:03:35;7.53;;;6.82;;
52136;SDS011;38130;49.012;8.368;2022-07-24T08:06:02;10.55;;;7.30;;
52136;SDS011;38130;49.012;8.368;2022-07-24T08:08:38;7.78;;;6.97;;
52136;SDS011;38130;49.012;8.368;2022-07-24T08:11:05;7.65;;;7.03;;
52136;SDS011;38130;49.012;8.368;2022-07-24T08:13:31;7.57;;;6.70;;
52136;SDS011;38130;49.012;8.368;2022-07-24T08:15:58;8.05;;;7.10;;
52136;SDS011;38130;49.012;8.368;2022-07-24T08:18:24;8.02;;;7.28;;
52136;SDS011;38130;49.012;8.368;2022-07-24T08:20:51;8.23;;;6.95;;
52136;SDS011;38130;49.012;8.368;2022-07-24T08:23:17;9.23;;;7.05;;
52136;SDS011;38130;49.012;8.368;2022-07-24T08:25:44;7.93;;;7.15;;
52136;SDS011;38130;49.012;8.368;2022-07-24T08:28:10;8.10;;;7.15;;
52136;SDS011;38130;49.012;8.368;2022-07-24T08:30:37;7.40;;;6.70;;
52136;SDS011;38130;49.012;8.368;2022-07-24T08:33:03;7.75;;;6.93;;
52136;SDS011;38130;49.012;8.368;2022-07-24T08:35:30;8.80;;;7.57;;
52136;SDS011;38130;49.012;8.368;2022-07-24T08:37:58;9.25;;;7.32;;
52136;SDS011;38130;49.012;8.368;2022-07-24T08:40:25;10.85;;;6.72;;
52136;SDS011;38130;49.012;8.368;2022-07-24T08:42:52;7.50;;;6.70;;
52136;SDS011;38130;49.012;8.368;2022-07-24T08:45:18;7.97;;;7.05;;
52136;SDS011;38130;49.012;8.368;2022-07-24T08:47:45;7.20;;;6.50;;
52136;SDS011;38130;49.012;8.368;2022-07-24T08:50:11;7.30;;;6.60;;
52136;SDS011;38130;49.012;8.368;2022-07-24T08:52:38;7.57;;;6.88;;
52136;SDS011;38130;49.012;8.368;2022-07-24T08:55:10;7.57;;;6.80;;
52136;SDS011;38130;49.012;8.368;2022-07-24T08:57:37;8.43;;;7.07;;
52136;SDS011;38130;49.012;8.368;2022-07-24T09:00:03;7.28;;;6.57;;
52136;SDS011;38130;49.012;8.368;2022-07-24T09:02:30;7.70;;;7.03;;
52136;SDS011;38130;49.012;8.368;2022-07-24T09:04:58;8.45;;;6.80;;
52136;SDS011;38130;49.012;8.368;2022-07-24T09:07:26;9.68;;;6.82;;
52136;SDS011;38130;49.012;8.368;2022-07-24T09:10:05;7.68;;;6.90;;
52136;SDS011;38130;49.012;8.368;2022-07-24T09:12:34;7.32;;;6.72;;
52136;SDS011;38130;49.012;8.368;2022-07-24T09:15:10;10.43;;;7.32;;
52136;SDS011;38130;49.012;8.368;2022-07-24T09:17:55;7.45;;;6.63;;
52136;SDS011;38130;49.012;8.368;2022-07-24T09:20:24;8.65;;;7.78;;
52136;SDS011;38130;49.012;8.368;2022-07-24T09:22:57;8.10;;;7.18;;
52136;SDS011;38130;49.012;8.368;2022-07-24T09:25:32;8.73;;;7.82;;
52136;SDS011;38130;49.012;8.368;2022-07-24T09:28:01;7.28;;;6.68;;
52136;SDS011;38130;49.012;8.368;2022-07-24T09:30:30;8.20;;;7.40;;
52136;SDS011;38130;49.012;8.368;2022-07-24T09:33:20;7.60;;;6.82;;
52136;SDS011;38130;49.012;8.368;2022-07-24T09:35:50;7.68;;;7.07;;
52136;SDS011;38130;49.012;8.368;2022-07-24T09:38:23;8.65;;;7.07;;
52136;SDS011;38130;49.012;8.368;2022-07-24T09:40:51;7.18;;;6.47;;
52136;SDS011;38130;49.012;8.368;2022-07-24T09:43:24;7.50;;;6.80;;
52136;SDS011;38130;49.012;8.368;2022-07-24T09:46:07;7.75;;;6.97;;
52136;SDS011;38130;49.012;8.368;2022-07-24T09:48:36;7.82;;;7.13;;
52136;SDS011;38130;49.012;8.368;2022-07-24T09:51:14;7.93;;;7.13;;
52136;SDS011;38130;49.012;8.368;2022-07-24T09:53:43;8.68;;;6.93;;
52136;SDS011;38130;49.012;8.368;2022-07-24T09:56:15;8.18;;;7.32;;
52136;SDS011;38130;49.012;8.368;2022-07-24T10:01:13;9.48;;;6.55;;
52136;SDS011;38130;49.012;8.368;2022-07-24T10:03:45;7.30;;;6.60;;
52136;SDS011;38130;49.012;8.368;2022-07-24T10:06:12;9.20;;;6.65;;
52136;SDS011;38130;49.012;8.368;2022-07-24T10:08:41;11.93;;;7.72;;
52136;SDS011;38130;49.012;8.368;2022-07-24T10:11:10;7.57;;;6.97;;
52136;SDS011;38130;49.012;8.368;2022-07-24T10:13:38;7.38;;;6.78;;
52136;SDS011;38130;49.012;8.368;2022-07-24T10:18:48;7.22;;;6.63;;
52136;SDS011;38130;49.012;8.368;2022-07-24T10:21:29;7.82;;;6.47;;
52136;SDS011;38130;49.012;8.368;2022-07-24T10:29:05;8.60;;;6.25;;
52136;SDS011;38130;49.012;8.368;2022-07-24T10:31:37;7.05;;;6.13;;
52136;SDS011;38130;49.012;8.368;2022-07-24T10:34:11;7.88;;;6.10;;
52136;SDS011;38130;49.012;8.368;2022-07-24T10:36:51;6.88;;;6.18;;
52136;SDS011;38130;49.012;8.368;2022-07-24T10:45:43;7.82;;;6.57;;
52136;SDS011;38130;49.012;8.368;2022-07-24T10:56:14;6.35;;;5.75;;
52136;SDS011;38130;49.012;8.368;2022-07-24T10:59:14;5.57;;;5.03;;
52136;SDS011;38130;49.012;8.368;2022-07-24T11:12:33;6.82;;;5.95;;
52136;SDS011;38130;49.012;8.368;2022-07-24T11:15:12;5.97;;;5.35;;
52136;SDS011;38130;49.012;8.368;2022-07-24T11:18:11;5.97;;;5.40;;
52136;SDS011;38130;49.012;8.368;2022-07-24T11:20:39;6.80;;;6.10;;
52136;SDS011;38130;49.012;8.368;2022-07-24T11:23:18;6.70;;;5.38;;
52136;SDS011;38130;49.012;8.368;2022-07-24T11:25:48;7.17;;;5.93;;
52136;SDS011;38130;49.012;8.368;2022-07-24T11:28:15;7.47;;;5.53;;
52136;SDS011;38130;49.012;8.368;2022-07-24T11:30:42;6.50;;;5.72;;
52136;SDS011;38130;49.012;8.368;2022-07-24T11:33:11;6.28;;;5.78;;
52136;SDS011;38130;49.012;8.368;2022-07-24T11:35:43;6.80;;;6.20;;
52136;SDS011;38130;49.012;8.368;2022-07-24T11:38:09;6.70;;;6.10;;
52136;SDS011;38130;49.012;8.368;2022-07-24T11:40:36;8.13;;;5.93;;
52136;SDS011;38130;49.012;8.368;2022-07-24T11:43:03;7.47;;;5.70;;
52136;SDS011;38130;49.012;8.368;2022-07-24T11:45:36;6.75;;;5.90;;
52136;SDS011;38130;49.012;8.368;2022-07-24T11:48:03;6.95;;;6.35;;
52136;SDS011;38130;49.012;8.368;2022-07-24T11:50:30;6.80;;;6.05;;
52136;SDS011;38130;49.012;8.368;2022-07-24T11:52:58;6.47;;;5.88;;
52136;SDS011;38130;49.012;8.368;2022-07-24T11:55:25;6.32;;;5.15;;
52136;SDS011;38130;49.012;8.368;2022-07-24T11:57:52;9.85;;;5.90;;
52136;SDS011;38130;49.012;8.368;2022-07-24T12:00:40;8.20;;;5.72;;
52136;SDS011;38130;49.012;8.368;2022-07-24T12:03:07;5.85;;;5.35;;
52136;SDS011;38130;49.012;8.368;2022-07-24T12:05:36;5.30;;;4.88;;
52136;SDS011;38130;49.012;8.368;2022-07-24T12:08:15;6.55;;;5.63;;
52136;SDS011;38130;49.012;8.368;2022-07-24T12:10:44;5.97;;;5.38;;
52136;SDS011;38130;49.012;8.368;2022-07-24T12:13:15;8.48;;;5.57;;
52136;SDS011;38130;49.012;8.368;2022-07-24T12:15:43;9.27;;;5.47;;
52136;SDS011;38130;49.012;8.368;2022-07-24T12:18:10;6.20;;;5.68;;
52136;SDS011;38130;49.012;8.368;2022-07-24T12:20:38;5.95;;;5.35;;
52136;SDS011;38130;49.012;8.368;2022-07-24T12:23:06;6.25;;;5.65;;
52136;SDS011;38130;49.012;8.368;2022-07-24T12:25:35;5.82;;;5.32;;
52136;SDS011;38130;49.012;8.368;2022-07-24T12:28:13;6.30;;;5.72;;
52136;SDS011;38130;49.012;8.368;2022-07-24T12:30:50;6.38;;;5.88;;
52136;SDS011;38130;49.012;8.368;2022-07-24T12:33:20;7.95;;;7.25;;
52136;SDS011;38130;49.012;8.368;2022-07-24T12:35:56;6.68;;;6.07;;
52136;SDS011;38130;49.012;8.368;2022-07-24T12:38:39;6.47;;;5.88;;
52136;SDS011;38130;49.012;8.368;2022-07-24T12:41:07;6.30;;;5.80;;
52136;SDS011;38130;49.012;8.368;2022-07-24T12:43:47;6.05;;;5.38;;
52136;SDS011;38130;49.012;8.368;2022-07-24T12:46:24;6.05;;;5.53;;
52136;SDS011;38130;49.012;8.368;2022-07-24T12:51:43;6.65;;;5.55;;
52136;SDS011;38130;49.012;8.368;2022-07-24T12:54:21;6.07;;;5.40;;
52136;SDS011;38130;49.012;8.368;2022-07-24T12:56:53;8.63;;;6.05;;
52136;SDS011;38130;49.012;8.368;2022-07-24T13:02:03;6.47;;;5.88;;
52136;SDS011;38130;49.012;8.368;2022-07-24T13:04:29;6.53;;;5.93;;
52136;SDS011;38130;49.012;8.368;2022-07-24T13:07:00;6.70;;;5.40;;
52136;SDS011;38130;49.012;8.368;2022-07-24T13:09:27;7.60;;;5.53;;
52136;SDS011;38130;49.012;8.368;2022-07-24T13:11:56;7.25;;;5.97;;
52136;SDS011;38130;49.012;8.368;2022-07-24T13:14:23;5.93;;;5.32;;
52136;SDS011;38130;49.012;8.368;2022-07-24T13:16:51;5.88;;;5.38;;
52136;SDS011;38130;49.012;8.368;2022-07-24T13:19:20;5.82;;;5.32;;
52136;SDS011;38130;49.012;8.368;2022-07-24T13:21:47;5.93;;;5.28;;
52136;SDS011;38130;49.012;8.368;2022-07-24T13:24:15;6.53;;;5.93;;
52136;SDS011;38130;49.012;8.368;2022-07-24T13:26:43;5.57;;;5.18;;
52136;SDS011;38130;49.012;8.368;2022-07-24T13:29:10;5.47;;;4.97;;
52136;SDS011;38130;49.012;8.368;2022-07-24T13:31:37;6.05;;;5.45;;
52136;SDS011;38130;49.012;8.368;2022-07-24T13:34:05;5.88;;;5.28;;
52136;SDS011;38130;49.012;8.368;2022-07-24T13:36:36;7.72;;;6.57;;
52136;SDS011;38130;49.012;8.368;2022-07-24T13:39:04;6.45;;;5.85;;
52136;SDS011;38130;49.012;8.368;2022-07-24T13:41:32;10.80;;;5.95;;
52136;SDS011;38130;49.012;8.368;2022-07-24T13:43:59;6.88;;;5.78;;
52136;SDS011;38130;49.012;8.368;2022-07-24T13:46:26;6.50;;;6.00;;
52136;SDS011;38130;49.012;8.368;2022-07-24T13:48:53;6.50;;;5.32;;
52136;SDS011;38130;49.012;8.368;2022-07-24T13:51:23;7.45;;;5.50;;
52136;SDS011;38130;49.012;8.368;2022-07-24T13:53:50;6.15;;;5.63;;
52136;SDS011;38130;49.012;8.368;2022-07-24T13:56:17;6.25;;;5.57;;
52136;SDS011;38130;49.012;8.368;2022-07-24T13:58:43;6.43;;;5.82;;
52136;SDS011;38130;49.012;8.368;2022-07-24T14:01:11;6.13;;;5.50;;
52136;SDS011;38130;49.012;8.368;2022-07-24T14:03:39;5.82;;;5.32;;
52136;SDS011;38130;49.012;8.368;2022-07-24T14:06:27;6.43;;;5.82;;
52136;SDS011;38130;49.012;8.368;2022-07-24T14:08:56;6.78;;;6.07;;
52136;SDS011;38130;49.012;8.368;2022-07-24T14:11:23;7.32;;;5.82;;
52136;SDS011;38130;49.012;8.368;2022-07-24T14:13:49;6.30;;;5.80;;
52136;SDS011;38130;49.012;8.368;2022-07-24T14:16:16;6.88;;;6.07;;
52136;SDS011;38130;49.012;8.368;2022-07-24T14:18:42;8.10;;;6.18;;
52136;SDS011;38130;49.012;8.368;2022-07-24T14:21:09;6.47;;;5.88;;
52136;SDS011;38130;49.012;8.368;2022-07-24T14:23:35;6.07;;;5.47;;
52136;SDS011;38130;49.012;8.368;2022-07-24T14:26:02;6.53;;;5.75;;
52136;SDS011;38130;49.012;8.368;2022-07-24T14:28:28;6.80;;;6.20;;
52136;SDS011;38130;49.012;8.368;2022-07-24T14:30:55;9.27;;;6.00;;
52136;SDS011;38130;49.012;8.368;2022-07-24T14:33:21;8.82;;;6.85;;
52136;SDS011;38130;49.012;8.368;2022-07-24T14:35:48;6.40;;;5.80;;
52136;SDS011;38130;49.012;8.368;2022-07-24T14:38:15;6.85;;;6.15;;
52136;SDS011;38130;49.012;8.368;2022-07-24T14:40:43;6.50;;;5.95;;
52136;SDS011;38130;49.012;8.368;2022-07-24T14:43:10;6.93;;;6.18;;
52136;SDS011;38130;49.012;8.368;2022-07-24T14:45:36;6.78;;;6.18;;
52136;SDS011;38130;49.012;8.368;2022-07-24T14:48:03;6.65;;;6.00;;
52136;SDS011;38130;49.012;8.368;2022-07-24T14:50:30;6.45;;;5.85;;
52136;SDS011;38130;49.012;8.368;2022-07-24T14:52:56;6.63;;;5.97;;
52136;SDS011;38130;49.012;8.368;2022-07-24T14:55:23;6.82;;;5.90;;
52136;SDS011;38130;49.012;8.368;2022-07-24T14:57:49;6.43;;;5.82;;
52136;SDS011;38130;49.012;8.368;2022-07-24T15:00:15;6.60;;;5.70;;
52136;SDS011;38130;49.012;8.368;2022-07-24T15:02:42;7.93;;;7.13;;
52136;SDS011;38130;49.012;8.368;2022-07-24T15:05:09;5.95;;;5.45;;
52136;SDS011;38130;49.012;8.368;2022-07-24T15:07:35;6.28;;;5.60;;
52136;SDS011;38130;49.012;8.368;2022-07-24T15:10:02;6.28;;;5.78;;
52136;SDS011;38130;49.012;8.368;2022-07-24T15:12:29;7.90;;;5.93;;
52136;SDS011;38130;49.012;8.368;2022-07-24T15:14:55;7.75;;;7.03;;
52136;SDS011;38130;49.012;8.368;2022-07-24T15:17:22;6.82;;;6.22;;
52136;SDS011;38130;49.012;8.368;2022-07-24T15:19:48;6.00;;;5.40;;
52136;SDS011;38130;49.012;8.368;2022-07-24T15:22:15;7.63;;;6.40;;
52136;SDS011;38130;49.012;8.368;2022-07-24T15:24:41;7.30;;;5.95;;
52136;SDS011;38130;49.012;8.368;2022-07-24T15:27:08;7.82;;;6.00;;